Guntersville, AL

12:54 PM CST on November 23, 2014 (GMT -0600)
KJ4UXN - Warrenton Shores | Change Station
CLOSE
Current Station
Personal Weather Station
Location: Guntersville, AL
Elevation: 633 ft
Nearby Weather Stations

Elev 633 ft 34.36 °N, 86.35 °W | Updated 3 minutes ago

Rain
Rain
54.5 °F
Feels Like 54.5 °F
N
8.0
Wind Variable Wind from SE
Gusts 13.0 mph

Today
High -- | Low -- °F
--% Chance of Precip.
Yesterday
High -- | Low -- °F
Precip. -- in
6:25 AM 4:37 PM
New Moon, 2% visible
Pressure 29.66 in
Visibility 7.0 miles
Clouds Overcast 500 ft
Dew Point 56 °F
Humidity 99%
Rainfall 0.20 in
Snow Depth Not available.
UV 1 out of 12
Pollen .10 out of 12
Air Quality Not available.
Flu Activity Not available.
METAR K8A0 231835Z AUTO 11013G20KT 7SM -DZ OVC005 12/12 A2966 RMK AO2 P0003 LTG DSNT N

More Conditions Fewer Conditions

Pressure 29.66 in
Visibility 7.0 miles
Clouds Overcast 500 ft
Dew Point 56 °F
Humidity 99%
Rainfall 0.20 in
Snow Depth Not available.
UV 1 out of 12
Pollen .10 out of 12
Air Quality Not available.
Flu Activity Not available.
METAR K8A0 231835Z AUTO 11013G20KT 7SM -DZ OVC005 12/12 A2966 RMK AO2 P0003 LTG DSNT N

More Conditions Fewer Conditions

10-Day Weather Forecast

Almanac

Astronomy

Nov. 23, 2014 Rise Set
Actual Time
Civil Twilight
Nautical Twilight
Astronomical Twilight
Moon
Length of Visible Light
Length of Day
Tomorrow will be .
, % of the Moon is Illuminated

Today's Extremes

State Highs State Lows

Community

WunderPhotos

Upload Photos

1,773,127 photos uploaded!

WunderBlogs® & News

Nearby

Air Quality

  Air Quality AQ Index Pollutant
Not available.

Snow Depth

Station Depth Elevation

Earthquake Activity

City Distance Mag. Time & Date
Minimum magnitude displayed is 2.5.

Coastal Water Temperatures

Place Temperature

Nearby Weather Stations